sensor_id;sensor_type;location;lat;lon;timestamp;P1;durP1;ratioP1;P2;durP2;ratioP2
27367;SDS011;14839;48.106;11.618;2023-05-08T04:02:05;1.17;;;0.87;;
27367;SDS011;14839;48.106;11.618;2023-05-08T04:04:40;0.87;;;0.83;;
27367;SDS011;14839;48.106;11.618;2023-05-08T04:07:09;2.77;;;1.30;;
27367;SDS011;14839;48.106;11.618;2023-05-08T04:09:44;0.53;;;0.53;;
27367;SDS011;14839;48.106;11.618;2023-05-08T04:12:19;2.33;;;1.47;;
27367;SDS011;14839;48.106;11.618;2023-05-08T04:14:59;1.17;;;1.07;;
27367;SDS011;14839;48.106;11.618;2023-05-08T04:17:48;0.77;;;0.77;;
27367;SDS011;14839;48.106;11.618;2023-05-08T04:20:19;1.20;;;0.87;;
27367;SDS011;14839;48.106;11.618;2023-05-08T04:22:46;1.27;;;1.17;;
27367;SDS011;14839;48.106;11.618;2023-05-08T04:25:14;1.03;;;0.50;;
27367;SDS011;14839;48.106;11.618;2023-05-08T04:27:41;1.57;;;1.13;;
27367;SDS011;14839;48.106;11.618;2023-05-08T04:30:09;0.83;;;0.83;;
27367;SDS011;14839;48.106;11.618;2023-05-08T04:32:35;1.40;;;1.30;;
27367;SDS011;14839;48.106;11.618;2023-05-08T04:35:02;1.23;;;1.03;;
27367;SDS011;14839;48.106;11.618;2023-05-08T04:37:29;0.80;;;0.80;;
27367;SDS011;14839;48.106;11.618;2023-05-08T04:39:58;0.93;;;0.87;;
27367;SDS011;14839;48.106;11.618;2023-05-08T04:42:25;0.80;;;0.70;;
27367;SDS011;14839;48.106;11.618;2023-05-08T04:44:51;1.67;;;1.43;;
27367;SDS011;14839;48.106;11.618;2023-05-08T04:47:17;0.40;;;0.40;;
27367;SDS011;14839;48.106;11.618;2023-05-08T04:49:43;1.70;;;1.43;;
27367;SDS011;14839;48.106;11.618;2023-05-08T04:52:08;1.10;;;1.00;;
27367;SDS011;14839;48.106;11.618;2023-05-08T04:54:34;1.17;;;0.97;;
27367;SDS011;14839;48.106;11.618;2023-05-08T04:57:00;3.20;;;1.63;;
27367;SDS011;14839;48.106;11.618;2023-05-08T04:59:26;0.73;;;0.73;;
27367;SDS011;14839;48.106;11.618;2023-05-08T05:01:52;1.23;;;1.00;;
27367;SDS011;14839;48.106;11.618;2023-05-08T05:04:17;1.43;;;0.80;;
27367;SDS011;14839;48.106;11.618;2023-05-08T05:06:43;1.80;;;1.23;;
27367;SDS011;14839;48.106;11.618;2023-05-08T05:09:09;1.00;;;1.00;;
27367;SDS011;14839;48.106;11.618;2023-05-08T05:11:35;0.67;;;0.50;;
27367;SDS011;14839;48.106;11.618;2023-05-08T05:14:01;1.47;;;1.10;;
27367;SDS011;14839;48.106;11.618;2023-05-08T05:16:26;0.97;;;0.93;;
27367;SDS011;14839;48.106;11.618;2023-05-08T05:18:52;2.37;;;1.67;;
27367;SDS011;14839;48.106;11.618;2023-05-08T05:21:18;1.83;;;1.47;;
27367;SDS011;14839;48.106;11.618;2023-05-08T05:23:44;1.07;;;0.93;;
27367;SDS011;14839;48.106;11.618;2023-05-08T05:26:10;1.07;;;0.70;;
27367;SDS011;14839;48.106;11.618;2023-05-08T05:28:35;0.97;;;0.83;;
27367;SDS011;14839;48.106;11.618;2023-05-08T05:31:01;0.77;;;0.43;;
27367;SDS011;14839;48.106;11.618;2023-05-08T05:33:27;1.80;;;1.00;;
27367;SDS011;14839;48.106;11.618;2023-05-08T05:35:53;0.83;;;0.83;;
27367;SDS011;14839;48.106;11.618;2023-05-08T05:38:18;1.77;;;0.93;;
27367;SDS011;14839;48.106;11.618;2023-05-08T05:40:44;1.10;;;1.00;;
27367;SDS011;14839;48.106;11.618;2023-05-08T05:43:10;1.40;;;1.27;;
27367;SDS011;14839;48.106;11.618;2023-05-08T05:45:35;1.27;;;1.07;;
27367;SDS011;14839;48.106;11.618;2023-05-08T05:48:01;2.00;;;1.10;;
27367;SDS011;14839;48.106;11.618;2023-05-08T05:50:27;2.50;;;1.67;;
27367;SDS011;14839;48.106;11.618;2023-05-08T05:52:53;2.20;;;1.27;;
27367;SDS011;14839;48.106;11.618;2023-05-08T05:55:19;2.03;;;1.27;;
27367;SDS011;14839;48.106;11.618;2023-05-08T05:57:46;1.90;;;1.33;;
27367;SDS011;14839;48.106;11.618;2023-05-08T06:00:12;1.43;;;1.20;;
27367;SDS011;14839;48.106;11.618;2023-05-08T06:02:38;1.63;;;1.00;;
27367;SDS011;14839;48.106;11.618;2023-05-08T06:05:04;1.23;;;0.90;;
27367;SDS011;14839;48.106;11.618;2023-05-08T06:07:30;1.33;;;0.90;;
27367;SDS011;14839;48.106;11.618;2023-05-08T06:09:56;0.53;;;0.53;;
27367;SDS011;14839;48.106;11.618;2023-05-08T06:12:22;0.80;;;0.80;;
27367;SDS011;14839;48.106;11.618;2023-05-08T06:14:47;1.33;;;1.13;;
27367;SDS011;14839;48.106;11.618;2023-05-08T06:17:15;0.63;;;0.57;;
27367;SDS011;14839;48.106;11.618;2023-05-08T06:19:41;1.70;;;0.83;;
27367;SDS011;14839;48.106;11.618;2023-05-08T06:22:07;0.50;;;0.40;;
27367;SDS011;14839;48.106;11.618;2023-05-08T06:24:32;1.67;;;0.83;;
27367;SDS011;14839;48.106;11.618;2023-05-08T06:26:59;1.60;;;1.03;;
27367;SDS011;14839;48.106;11.618;2023-05-08T06:29:25;0.50;;;0.43;;
27367;SDS011;14839;48.106;11.618;2023-05-08T06:31:50;0.70;;;0.70;;
27367;SDS011;14839;48.106;11.618;2023-05-08T06:34:16;0.80;;;0.77;;
27367;SDS011;14839;48.106;11.618;2023-05-08T06:36:41;0.63;;;0.63;;
27367;SDS011;14839;48.106;11.618;2023-05-08T06:39:07;0.93;;;0.93;;
27367;SDS011;14839;48.106;11.618;2023-05-08T06:41:33;1.53;;;1.20;;
27367;SDS011;14839;48.106;11.618;2023-05-08T06:43:58;0.90;;;0.90;;
27367;SDS011;14839;48.106;11.618;2023-05-08T06:46:24;1.33;;;1.23;;
27367;SDS011;14839;48.106;11.618;2023-05-08T06:48:49;0.60;;;0.60;;
27367;SDS011;14839;48.106;11.618;2023-05-08T06:51:15;2.03;;;1.40;;
27367;SDS011;14839;48.106;11.618;2023-05-08T06:53:41;1.13;;;1.03;;
27367;SDS011;14839;48.106;11.618;2023-05-08T06:56:06;1.10;;;1.00;;
27367;SDS011;14839;48.106;11.618;2023-05-08T06:58:32;1.07;;;0.83;;
27367;SDS011;14839;48.106;11.618;2023-05-08T07:00:58;2.47;;;0.50;;
27367;SDS011;14839;48.106;11.618;2023-05-08T07:03:25;1.10;;;0.97;;
27367;SDS011;14839;48.106;11.618;2023-05-08T07:05:51;2.03;;;1.13;;
27367;SDS011;14839;48.106;11.618;2023-05-08T07:08:17;1.27;;;1.10;;
27367;SDS011;14839;48.106;11.618;2023-05-08T07:10:43;2.47;;;1.57;;
27367;SDS011;14839;48.106;11.618;2023-05-08T07:13:08;0.73;;;0.70;;
27367;SDS011;14839;48.106;11.618;2023-05-08T07:15:34;1.13;;;1.00;;
27367;SDS011;14839;48.106;11.618;2023-05-08T07:18:00;0.63;;;0.63;;
27367;SDS011;14839;48.106;11.618;2023-05-08T07:20:26;1.13;;;0.57;;
27367;SDS011;14839;48.106;11.618;2023-05-08T07:22:51;1.50;;;1.13;;
27367;SDS011;14839;48.106;11.618;2023-05-08T07:25:17;1.23;;;1.10;;
27367;SDS011;14839;48.106;11.618;2023-05-08T07:27:43;0.73;;;0.73;;
27367;SDS011;14839;48.106;11.618;2023-05-08T07:30:08;0.67;;;0.67;;
27367;SDS011;14839;48.106;11.618;2023-05-08T07:32:34;0.80;;;0.80;;
27367;SDS011;14839;48.106;11.618;2023-05-08T07:35:02;1.20;;;1.07;;
27367;SDS011;14839;48.106;11.618;2023-05-08T07:37:30;0.90;;;0.83;;
27367;SDS011;14839;48.106;11.618;2023-05-08T07:39:56;1.13;;;0.87;;
27367;SDS011;14839;48.106;11.618;2023-05-08T07:42:21;1.13;;;1.00;;
27367;SDS011;14839;48.106;11.618;2023-05-08T07:44:47;1.20;;;1.03;;
27367;SDS011;14839;48.106;11.618;2023-05-08T07:47:13;0.97;;;0.87;;
27367;SDS011;14839;48.106;11.618;2023-05-08T07:49:38;0.80;;;0.80;;
27367;SDS011;14839;48.106;11.618;2023-05-08T07:52:04;1.03;;;0.50;;
27367;SDS011;14839;48.106;11.618;2023-05-08T07:54:29;1.30;;;1.10;;
27367;SDS011;14839;48.106;11.618;2023-05-08T07:56:55;1.40;;;0.80;;
27367;SDS011;14839;48.106;11.618;2023-05-08T07:59:20;0.90;;;0.90;;
27367;SDS011;14839;48.106;11.618;2023-05-08T08:01:46;0.80;;;0.60;;
27367;SDS011;14839;48.106;11.618;2023-05-08T08:04:12;1.50;;;0.73;;
27367;SDS011;14839;48.106;11.618;2023-05-08T08:06:38;0.97;;;0.73;;
27367;SDS011;14839;48.106;11.618;2023-05-08T08:09:04;1.07;;;0.90;;
27367;SDS011;14839;48.106;11.618;2023-05-08T08:11:30;1.97;;;1.60;;
27367;SDS011;14839;48.106;11.618;2023-05-08T08:13:55;0.70;;;0.60;;
27367;SDS011;14839;48.106;11.618;2023-05-08T08:16:21;1.97;;;1.17;;
27367;SDS011;14839;48.106;11.618;2023-05-08T08:18:47;2.03;;;1.50;;
27367;SDS011;14839;48.106;11.618;2023-05-08T08:21:12;1.63;;;1.53;;
27367;SDS011;14839;48.106;11.618;2023-05-08T08:23:38;1.50;;;1.10;;
27367;SDS011;14839;48.106;11.618;2023-05-08T08:26:03;1.60;;;1.40;;
27367;SDS011;14839;48.106;11.618;2023-05-08T08:28:29;1.07;;;0.97;;
27367;SDS011;14839;48.106;11.618;2023-05-08T08:30:55;0.77;;;0.50;;
27367;SDS011;14839;48.106;11.618;2023-05-08T08:33:20;1.03;;;0.97;;
27367;SDS011;14839;48.106;11.618;2023-05-08T08:35:46;1.80;;;1.23;;
27367;SDS011;14839;48.106;11.618;2023-05-08T08:38:12;1.30;;;0.80;;
27367;SDS011;14839;48.106;11.618;2023-05-08T08:40:41;1.83;;;0.90;;
27367;SDS011;14839;48.106;11.618;2023-05-08T08:43:07;2.37;;;1.57;;
27367;SDS011;14839;48.106;11.618;2023-05-08T08:45:34;1.80;;;1.23;;
27367;SDS011;14839;48.106;11.618;2023-05-08T08:48:01;1.43;;;1.07;;
27367;SDS011;14839;48.106;11.618;2023-05-08T08:50:31;2.00;;;1.13;;
27367;SDS011;14839;48.106;11.618;2023-05-08T08:53:08;0.63;;;0.63;;
27367;SDS011;14839;48.106;11.618;2023-05-08T08:55:38;2.07;;;1.50;;
27367;SDS011;14839;48.106;11.618;2023-05-08T08:58:17;1.47;;;1.37;;
27367;SDS011;14839;48.106;11.618;2023-05-08T09:00:54;1.77;;;1.40;;
27367;SDS011;14839;48.106;11.618;2023-05-08T09:03:21;1.23;;;1.10;;
27367;SDS011;14839;48.106;11.618;2023-05-08T09:05:47;1.43;;;1.20;;
27367;SDS011;14839;48.106;11.618;2023-05-08T09:08:16;0.87;;;0.80;;
27367;SDS011;14839;48.106;11.618;2023-05-08T09:10:42;1.53;;;1.43;;
27367;SDS011;14839;48.106;11.618;2023-05-08T09:13:08;1.20;;;1.10;;
27367;SDS011;14839;48.106;11.618;2023-05-08T09:15:34;2.97;;;1.80;;
27367;SDS011;14839;48.106;11.618;2023-05-08T09:18:00;2.17;;;1.57;;
27367;SDS011;14839;48.106;11.618;2023-05-08T09:20:26;2.50;;;1.60;;
27367;SDS011;14839;48.106;11.618;2023-05-08T09:22:53;1.10;;;1.10;;
27367;SDS011;14839;48.106;11.618;2023-05-08T09:25:19;1.88;;;1.20;;
27367;SDS011;14839;48.106;11.618;2023-05-08T09:27:45;1.90;;;1.20;;
27367;SDS011;14839;48.106;11.618;2023-05-08T09:30:11;1.97;;;1.20;;
27367;SDS011;14839;48.106;11.618;2023-05-08T09:32:41;1.33;;;1.10;;
27367;SDS011;14839;48.106;11.618;2023-05-08T09:35:08;4.28;;;1.27;;
27367;SDS011;14839;48.106;11.618;2023-05-08T09:37:39;1.07;;;1.00;;
27367;SDS011;14839;48.106;11.618;2023-05-08T09:40:20;1.00;;;1.00;;
27367;SDS011;14839;48.106;11.618;2023-05-08T09:42:46;2.67;;;1.50;;
27367;SDS011;14839;48.106;11.618;2023-05-08T09:45:29;3.83;;;2.17;;
27367;SDS011;14839;48.106;11.618;2023-05-08T09:47:56;1.85;;;1.20;;
27367;SDS011;14839;48.106;11.618;2023-05-08T09:50:22;1.63;;;1.52;;
27367;SDS011;14839;48.106;11.618;2023-05-08T09:52:48;2.13;;;1.40;;
27367;SDS011;14839;48.106;11.618;2023-05-08T09:55:14;4.18;;;2.25;;
27367;SDS011;14839;48.106;11.618;2023-05-08T09:57:54;1.83;;;1.38;;
27367;SDS011;14839;48.106;11.618;2023-05-08T10:00:24;2.38;;;2.03;;
27367;SDS011;14839;48.106;11.618;2023-05-08T10:03:00;1.63;;;1.52;;
27367;SDS011;14839;48.106;11.618;2023-05-08T10:05:27;1.65;;;1.55;;
27367;SDS011;14839;48.106;11.618;2023-05-08T10:07:54;2.50;;;2.30;;
27367;SDS011;14839;48.106;11.618;2023-05-08T10:10:26;2.80;;;2.10;;
27367;SDS011;14839;48.106;11.618;2023-05-08T10:12:54;3.78;;;1.77;;
27367;SDS011;14839;48.106;11.618;2023-05-08T10:15:26;2.10;;;1.90;;
27367;SDS011;14839;48.106;11.618;2023-05-08T10:17:57;2.92;;;2.15;;
27367;SDS011;14839;48.106;11.618;2023-05-08T10:20:31;4.40;;;1.98;;
27367;SDS011;14839;48.106;11.618;2023-05-08T10:22:58;7.28;;;3.15;;
27367;SDS011;14839;48.106;11.618;2023-05-08T10:25:25;2.75;;;1.55;;
27367;SDS011;14839;48.106;11.618;2023-05-08T10:30:43;3.00;;;2.20;;
27367;SDS011;14839;48.106;11.618;2023-05-08T10:33:13;2.20;;;1.50;;
27367;SDS011;14839;48.106;11.618;2023-05-08T10:35:42;3.53;;;1.93;;
27367;SDS011;14839;48.106;11.618;2023-05-08T10:38:09;3.17;;;1.73;;
27367;SDS011;14839;48.106;11.618;2023-05-08T10:40:36;2.40;;;1.53;;
27367;SDS011;14839;48.106;11.618;2023-05-08T10:43:02;3.27;;;1.87;;
27367;SDS011;14839;48.106;11.618;2023-05-08T10:45:31;2.25;;;2.03;;
27367;SDS011;14839;48.106;11.618;2023-05-08T10:56:02;2.35;;;1.92;;
27367;SDS011;14839;48.106;11.618;2023-05-08T10:58:32;2.20;;;2.00;;
27367;SDS011;14839;48.106;11.618;2023-05-08T11:03:27;3.38;;;2.28;;
27367;SDS011;14839;48.106;11.618;2023-05-08T11:05:56;2.83;;;2.20;;
27367;SDS011;14839;48.106;11.618;2023-05-08T11:08:23;3.10;;;1.88;;
27367;SDS011;14839;48.106;11.618;2023-05-08T11:13:36;2.42;;;1.80;;
27367;SDS011;14839;48.106;11.618;2023-05-08T11:16:07;4.03;;;2.13;;
27367;SDS011;14839;48.106;11.618;2023-05-08T11:18:35;2.47;;;2.20;;
27367;SDS011;14839;48.106;11.618;2023-05-08T11:21:03;3.63;;;2.40;;
27367;SDS011;14839;48.106;11.618;2023-05-08T11:23:33;2.00;;;1.80;;
27367;SDS011;14839;48.106;11.618;2023-05-08T11:26:03;3.23;;;2.23;;
27367;SDS011;14839;48.106;11.618;2023-05-08T11:28:30;8.37;;;1.73;;
27367;SDS011;14839;48.106;11.618;2023-05-08T11:31:01;6.50;;;2.97;;
27367;SDS011;14839;48.106;11.618;2023-05-08T11:33:29;4.95;;;2.42;;
27367;SDS011;14839;48.106;11.618;2023-05-08T11:35:57;3.03;;;2.47;;
27367;SDS011;14839;48.106;11.618;2023-05-08T11:48:28;2.97;;;2.43;;
27367;SDS011;14839;48.106;11.618;2023-05-08T11:50:54;4.78;;;3.05;;
27367;SDS011;14839;48.106;11.618;2023-05-08T11:53:20;3.15;;;2.53;;
27367;SDS011;14839;48.106;11.618;2023-05-08T11:55:46;2.40;;;1.77;;
27367;SDS011;14839;48.106;11.618;2023-05-08T11:58:13;3.00;;;1.77;;
27367;SDS011;14839;48.106;11.618;2023-05-08T12:00:43;4.72;;;2.40;;
27367;SDS011;14839;48.106;11.618;2023-05-08T12:03:10;3.83;;;2.05;;
27367;SDS011;14839;48.106;11.618;2023-05-08T12:05:37;2.20;;;1.97;;
27367;SDS011;14839;48.106;11.618;2023-05-08T12:08:04;2.42;;;2.17;;
27367;SDS011;14839;48.106;11.618;2023-05-08T12:10:30;3.53;;;2.05;;
27367;SDS011;14839;48.106;11.618;2023-05-08T12:12:56;3.60;;;2.30;;
27367;SDS011;14839;48.106;11.618;2023-05-08T12:15:22;5.10;;;2.90;;
27367;SDS011;14839;48.106;11.618;2023-05-08T12:17:47;3.42;;;2.83;;
27367;SDS011;14839;48.106;11.618;2023-05-08T12:20:14;3.60;;;2.58;;
27367;SDS011;14839;48.106;11.618;2023-05-08T12:22:49;3.20;;;2.40;;
27367;SDS011;14839;48.106;11.618;2023-05-08T12:25:16;2.87;;;2.57;;
27367;SDS011;14839;48.106;11.618;2023-05-08T12:27:42;4.70;;;2.72;;
27367;SDS011;14839;48.106;11.618;2023-05-08T12:30:10;3.90;;;2.50;;
27367;SDS011;14839;48.106;11.618;2023-05-08T12:32:37;2.40;;;2.20;;
27367;SDS011;14839;48.106;11.618;2023-05-08T12:35:06;2.78;;;1.85;;
27367;SDS011;14839;48.106;11.618;2023-05-08T12:37:32;2.30;;;1.80;;
27367;SDS011;14839;48.106;11.618;2023-05-08T12:39:57;2.33;;;1.87;;
27367;SDS011;14839;48.106;11.618;2023-05-08T12:45:15;3.33;;;2.00;;
27367;SDS011;14839;48.106;11.618;2023-05-08T12:47:49;2.77;;;1.90;;
27367;SDS011;14839;48.106;11.618;2023-05-08T12:50:16;2.73;;;2.07;;
27367;SDS011;14839;48.106;11.618;2023-05-08T12:52:45;2.57;;;2.03;;
27367;SDS011;14839;48.106;11.618;2023-05-08T12:55:27;2.93;;;2.27;;
27367;SDS011;14839;48.106;11.618;2023-05-08T12:58:13;1.57;;;1.23;;
27367;SDS011;14839;48.106;11.618;2023-05-08T13:00:42;1.93;;;1.80;;
27367;SDS011;14839;48.106;11.618;2023-05-08T13:03:11;3.63;;;2.37;;
27367;SDS011;14839;48.106;11.618;2023-05-08T13:05:45;3.97;;;3.17;;
27367;SDS011;14839;48.106;11.618;2023-05-08T13:08:10;3.40;;;2.23;;
27367;SDS011;14839;48.106;11.618;2023-05-08T13:10:43;3.20;;;2.47;;
27367;SDS011;14839;48.106;11.618;2023-05-08T13:13:33;1.53;;;1.43;;
27367;SDS011;14839;48.106;11.618;2023-05-08T13:16:03;3.90;;;2.63;;
27367;SDS011;14839;48.106;11.618;2023-05-08T13:18:30;3.93;;;2.33;;
27367;SDS011;14839;48.106;11.618;2023-05-08T13:20:56;5.23;;;2.43;;
27367;SDS011;14839;48.106;11.618;2023-05-08T13:23:22;5.10;;;3.13;;
27367;SDS011;14839;48.106;11.618;2023-05-08T13:25:48;5.03;;;2.17;;
27367;SDS011;14839;48.106;11.618;2023-05-08T13:28:15;3.80;;;2.83;;
27367;SDS011;14839;48.106;11.618;2023-05-08T13:30:40;2.40;;;1.87;;
27367;SDS011;14839;48.106;11.618;2023-05-08T13:33:06;4.60;;;2.37;;
27367;SDS011;14839;48.106;11.618;2023-05-08T13:35:32;6.37;;;2.47;;
27367;SDS011;14839;48.106;11.618;2023-05-08T13:37:59;3.83;;;2.83;;
27367;SDS011;14839;48.106;11.618;2023-05-08T13:40:25;4.23;;;3.00;;
27367;SDS011;14839;48.106;11.618;2023-05-08T13:42:51;3.63;;;2.23;;
27367;SDS011;14839;48.106;11.618;2023-05-08T13:45:17;3.50;;;2.53;;
27367;SDS011;14839;48.106;11.618;2023-05-08T13:47:43;3.03;;;2.47;;
27367;SDS011;14839;48.106;11.618;2023-05-08T13:50:11;3.53;;;2.80;;
27367;SDS011;14839;48.106;11.618;2023-05-08T13:52:38;2.87;;;1.87;;
27367;SDS011;14839;48.106;11.618;2023-05-08T13:55:05;3.13;;;2.70;;
27367;SDS011;14839;48.106;11.618;2023-05-08T13:57:32;2.63;;;2.37;;
27367;SDS011;14839;48.106;11.618;2023-05-08T13:59:58;3.57;;;2.13;;
27367;SDS011;14839;48.106;11.618;2023-05-08T14:02:24;3.57;;;2.73;;
27367;SDS011;14839;48.106;11.618;2023-05-08T14:04:49;4.47;;;2.43;;
27367;SDS011;14839;48.106;11.618;2023-05-08T14:07:15;3.60;;;2.43;;
27367;SDS011;14839;48.106;11.618;2023-05-08T14:09:42;3.83;;;2.53;;
27367;SDS011;14839;48.106;11.618;2023-05-08T14:12:08;4.00;;;2.13;;
27367;SDS011;14839;48.106;11.618;2023-05-08T14:14:34;4.20;;;3.33;;
27367;SDS011;14839;48.106;11.618;2023-05-08T14:16:59;2.60;;;1.83;;
27367;SDS011;14839;48.106;11.618;2023-05-08T14:19:25;3.03;;;1.87;;
27367;SDS011;14839;48.106;11.618;2023-05-08T14:21:51;3.03;;;2.10;;
27367;SDS011;14839;48.106;11.618;2023-05-08T14:24:16;8.33;;;2.53;;
27367;SDS011;14839;48.106;11.618;2023-05-08T14:26:42;2.80;;;2.23;;
27367;SDS011;14839;48.106;11.618;2023-05-08T14:29:08;3.30;;;1.90;;
27367;SDS011;14839;48.106;11.618;2023-05-08T14:31:33;3.13;;;1.67;;
27367;SDS011;14839;48.106;11.618;2023-05-08T14:33:59;1.93;;;1.63;;
27367;SDS011;14839;48.106;11.618;2023-05-08T14:36:25;2.60;;;1.43;;
27367;SDS011;14839;48.106;11.618;2023-05-08T14:38:51;2.33;;;1.50;;
27367;SDS011;14839;48.106;11.618;2023-05-08T14:41:17;2.80;;;2.07;;
27367;SDS011;14839;48.106;11.618;2023-05-08T14:43:42;3.03;;;2.00;;
27367;SDS011;14839;48.106;11.618;2023-05-08T14:46:08;3.60;;;1.33;;
27367;SDS011;14839;48.106;11.618;2023-05-08T14:48:33;1.60;;;1.37;;
27367;SDS011;14839;48.106;11.618;2023-05-08T14:50:59;2.20;;;1.60;;
27367;SDS011;14839;48.106;11.618;2023-05-08T14:53:24;1.87;;;1.20;;
27367;SDS011;14839;48.106;11.618;2023-05-08T14:55:50;2.37;;;1.87;;
27367;SDS011;14839;48.106;11.618;2023-05-08T14:58:16;2.77;;;2.10;;
27367;SDS011;14839;48.106;11.618;2023-05-08T15:00:41;2.30;;;1.80;;
27367;SDS011;14839;48.106;11.618;2023-05-08T15:03:07;3.07;;;2.27;;
27367;SDS011;14839;48.106;11.618;2023-05-08T15:05:32;3.43;;;1.70;;
27367;SDS011;14839;48.106;11.618;2023-05-08T15:07:58;2.17;;;1.53;;
27367;SDS011;14839;48.106;11.618;2023-05-08T15:10:25;2.70;;;1.70;;
27367;SDS011;14839;48.106;11.618;2023-05-08T15:12:51;1.93;;;1.40;;
27367;SDS011;14839;48.106;11.618;2023-05-08T15:15:16;1.23;;;1.13;;
27367;SDS011;14839;48.106;11.618;2023-05-08T15:17:42;1.33;;;1.23;;
27367;SDS011;14839;48.106;11.618;2023-05-08T15:20:07;1.63;;;1.53;;
27367;SDS011;14839;48.106;11.618;2023-05-08T15:22:33;2.57;;;1.67;;
27367;SDS011;14839;48.106;11.618;2023-05-08T15:24:59;1.87;;;1.70;;
27367;SDS011;14839;48.106;11.618;2023-05-08T15:27:26;1.27;;;1.10;;
27367;SDS011;14839;48.106;11.618;2023-05-08T15:29:55;3.00;;;1.63;;
27367;SDS011;14839;48.106;11.618;2023-05-08T15:32:21;3.23;;;1.83;;
27367;SDS011;14839;48.106;11.618;2023-05-08T15:34:47;2.00;;;1.03;;
27367;SDS011;14839;48.106;11.618;2023-05-08T15:37:12;2.73;;;1.63;;
27367;SDS011;14839;48.106;11.618;2023-05-08T15:39:38;3.67;;;2.20;;
27367;SDS011;14839;48.106;11.618;2023-05-08T15:42:04;1.40;;;1.30;;
27367;SDS011;14839;48.106;11.618;2023-05-08T15:44:30;2.37;;;2.17;;
27367;SDS011;14839;48.106;11.618;2023-05-08T15:46:56;2.67;;;1.53;;
27367;SDS011;14839;48.106;11.618;2023-05-08T15:49:21;3.50;;;2.13;;
27367;SDS011;14839;48.106;11.618;2023-05-08T15:51:51;1.63;;;1.53;;
27367;SDS011;14839;48.106;11.618;2023-05-08T15:54:17;0.87;;;0.83;;
27367;SDS011;14839;48.106;11.618;2023-05-08T15:56:43;2.67;;;1.33;;
27367;SDS011;14839;48.106;11.618;2023-05-08T15:59:08;1.27;;;1.03;;
27367;SDS011;14839;48.106;11.618;2023-05-08T16:01:34;1.23;;;1.13;;
27367;SDS011;14839;48.106;11.618;2023-05-08T16:04:00;3.00;;;1.90;;
27367;SDS011;14839;48.106;11.618;2023-05-08T16:06:25;4.23;;;1.63;;
27367;SDS011;14839;48.106;11.618;2023-05-08T16:08:51;1.43;;;1.13;;
27367;SDS011;14839;48.106;11.618;2023-05-08T16:11:17;2.43;;;1.77;;
27367;SDS011;14839;48.106;11.618;2023-05-08T16:13:42;1.10;;;1.00;;
27367;SDS011;14839;48.106;11.618;2023-05-08T16:16:08;1.30;;;1.17;;
27367;SDS011;14839;48.106;11.618;2023-05-08T16:18:34;1.53;;;1.13;;
27367;SDS011;14839;48.106;11.618;2023-05-08T16:21:00;1.50;;;1.40;;
27367;SDS011;14839;48.106;11.618;2023-05-08T16:23:25;2.23;;;1.80;;
27367;SDS011;14839;48.106;11.618;2023-05-08T16:25:51;2.03;;;1.03;;
27367;SDS011;14839;48.106;11.618;2023-05-08T16:28:17;1.50;;;1.30;;
27367;SDS011;14839;48.106;11.618;2023-05-08T16:30:42;3.53;;;1.43;;
27367;SDS011;14839;48.106;11.618;2023-05-08T16:33:08;1.67;;;1.27;;
27367;SDS011;14839;48.106;11.618;2023-05-08T16:35:36;2.07;;;1.30;;
27367;SDS011;14839;48.106;11.618;2023-05-08T16:38:01;1.50;;;1.27;;
27367;SDS011;14839;48.106;11.618;2023-05-08T16:40:29;0.50;;;0.50;;
27367;SDS011;14839;48.106;11.618;2023-05-08T16:42:55;0.93;;;0.87;;
27367;SDS011;14839;48.106;11.618;2023-05-08T16:45:20;4.60;;;2.00;;
27367;SDS011;14839;48.106;11.618;2023-05-08T16:47:46;2.23;;;1.53;;
27367;SDS011;14839;48.106;11.618;2023-05-08T16:50:11;1.63;;;1.47;;
27367;SDS011;14839;48.106;11.618;2023-05-08T16:52:37;2.37;;;1.43;;
27367;SDS011;14839;48.106;11.618;2023-05-08T16:55:03;2.97;;;1.30;;
27367;SDS011;14839;48.106;11.618;2023-05-08T16:57:31;2.30;;;1.60;;
27367;SDS011;14839;48.106;11.618;2023-05-08T16:59:57;2.07;;;1.60;;
27367;SDS011;14839;48.106;11.618;2023-05-08T17:02:23;3.93;;;1.50;;
27367;SDS011;14839;48.106;11.618;2023-05-08T17:04:49;2.73;;;1.90;;
27367;SDS011;14839;48.106;11.618;2023-05-08T17:07:15;1.33;;;0.77;;
27367;SDS011;14839;48.106;11.618;2023-05-08T17:09:54;3.07;;;1.43;;
27367;SDS011;14839;48.106;11.618;2023-05-08T17:12:33;2.93;;;1.57;;
27367;SDS011;14839;48.106;11.618;2023-05-08T17:14:59;1.77;;;1.67;;
27367;SDS011;14839;48.106;11.618;2023-05-08T17:17:25;1.43;;;0.93;;
27367;SDS011;14839;48.106;11.618;2023-05-08T17:19:50;2.83;;;1.47;;
27367;SDS011;14839;48.106;11.618;2023-05-08T17:22:16;3.60;;;1.30;;
27367;SDS011;14839;48.106;11.618;2023-05-08T17:24:44;1.67;;;1.30;;
27367;SDS011;14839;48.106;11.618;2023-05-08T17:27:10;1.70;;;1.57;;
27367;SDS011;14839;48.106;11.618;2023-05-08T17:29:35;2.93;;;1.70;;
27367;SDS011;14839;48.106;11.618;2023-05-08T17:32:01;2.00;;;1.60;;
27367;SDS011;14839;48.106;11.618;2023-05-08T17:34:27;1.57;;;1.20;;
27367;SDS011;14839;48.106;11.618;2023-05-08T17:36:52;1.63;;;1.40;;
27367;SDS011;14839;48.106;11.618;2023-05-08T17:39:18;2.30;;;2.07;;
27367;SDS011;14839;48.106;11.618;2023-05-08T17:41:46;2.10;;;1.43;;
27367;SDS011;14839;48.106;11.618;2023-05-08T17:44:12;1.87;;;1.63;;
27367;SDS011;14839;48.106;11.618;2023-05-08T17:46:38;2.37;;;0.97;;
27367;SDS011;14839;48.106;11.618;2023-05-08T17:49:03;2.13;;;1.57;;
27367;SDS011;14839;48.106;11.618;2023-05-08T17:51:29;2.10;;;1.90;;
27367;SDS011;14839;48.106;11.618;2023-05-08T17:53:55;1.50;;;1.40;;
27367;SDS011;14839;48.106;11.618;2023-05-08T17:56:21;2.07;;;1.50;;
27367;SDS011;14839;48.106;11.618;2023-05-08T17:58:47;2.43;;;1.40;;
27367;SDS011;14839;48.106;11.618;2023-05-08T18:01:14;2.53;;;1.87;;
27367;SDS011;14839;48.106;11.618;2023-05-08T18:03:39;3.37;;;1.53;;
27367;SDS011;14839;48.106;11.618;2023-05-08T18:06:05;1.37;;;1.27;;
27367;SDS011;14839;48.106;11.618;2023-05-08T18:08:32;1.40;;;1.23;;
27367;SDS011;14839;48.106;11.618;2023-05-08T18:10:58;3.17;;;2.27;;
27367;SDS011;14839;48.106;11.618;2023-05-08T18:13:23;2.40;;;1.93;;
27367;SDS011;14839;48.106;11.618;2023-05-08T18:15:49;1.87;;;1.47;;
27367;SDS011;14839;48.106;11.618;2023-05-08T18:18:14;1.73;;;1.57;;
27367;SDS011;14839;48.106;11.618;2023-05-08T18:20:40;2.10;;;1.67;;
27367;SDS011;14839;48.106;11.618;2023-05-08T18:23:06;2.27;;;1.57;;
27367;SDS011;14839;48.106;11.618;2023-05-08T18:25:31;1.50;;;1.40;;
27367;SDS011;14839;48.106;11.618;2023-05-08T18:27:57;2.57;;;2.33;;
27367;SDS011;14839;48.106;11.618;2023-05-08T18:30:23;2.00;;;1.80;;
27367;SDS011;14839;48.106;11.618;2023-05-08T18:32:48;2.30;;;2.20;;
27367;SDS011;14839;48.106;11.618;2023-05-08T18:35:16;6.07;;;1.87;;
27367;SDS011;14839;48.106;11.618;2023-05-08T18:37:42;2.20;;;1.70;;
27367;SDS011;14839;48.106;11.618;2023-05-08T18:40:08;1.73;;;1.63;;
27367;SDS011;14839;48.106;11.618;2023-05-08T18:42:34;1.77;;;1.67;;
27367;SDS011;14839;48.106;11.618;2023-05-08T18:44:59;3.20;;;2.20;;
27367;SDS011;14839;48.106;11.618;2023-05-08T18:47:29;3.70;;;1.97;;
27367;SDS011;14839;48.106;11.618;2023-05-08T18:49:55;2.97;;;1.70;;
27367;SDS011;14839;48.106;11.618;2023-05-08T18:52:21;3.57;;;1.77;;
27367;SDS011;14839;48.106;11.618;2023-05-08T18:54:47;4.87;;;2.37;;
27367;SDS011;14839;48.106;11.618;2023-05-08T18:57:12;2.60;;;2.37;;
27367;SDS011;14839;48.106;11.618;2023-05-08T18:59:38;1.90;;;1.37;;
27367;SDS011;14839;48.106;11.618;2023-05-08T19:02:04;1.87;;;1.70;;